sensor_id;sensor_type;location;lat;lon;timestamp;temperature;humidity
9497;DHT22;4786;51.270;4.456;2022-10-31T00:01:25;14.00;99.90
9497;DHT22;4786;51.270;4.456;2022-10-31T00:03:51;14.10;99.90
9497;DHT22;4786;51.270;4.456;2022-10-31T00:06:17;14.00;99.90
9497;DHT22;4786;51.270;4.456;2022-10-31T00:08:51;13.90;99.90
9497;DHT22;4786;51.270;4.456;2022-10-31T00:11:17;13.90;99.90
9497;DHT22;4786;51.270;4.456;2022-10-31T00:13:43;13.80;99.90
9497;DHT22;4786;51.270;4.456;2022-10-31T00:16:23;13.90;99.90
9497;DHT22;4786;51.270;4.456;2022-10-31T00:18:53;13.90;99.90
9497;DHT22;4786;51.270;4.456;2022-10-31T00:21:20;13.80;99.90
9497;DHT22;4786;51.270;4.456;2022-10-31T00:23:46;13.70;99.90
9497;DHT22;4786;51.270;4.456;2022-10-31T00:26:12;13.70;99.90
9497;DHT22;4786;51.270;4.456;2022-10-31T00:28:38;13.80;99.90
9497;DHT22;4786;51.270;4.456;2022-10-31T00:31:07;13.90;99.90
9497;DHT22;4786;51.270;4.456;2022-10-31T00:33:35;13.70;99.90
9497;DHT22;4786;51.270;4.456;2022-10-31T00:36:02;13.70;99.90
9497;DHT22;4786;51.270;4.456;2022-10-31T00:38:28;13.70;99.90
9497;DHT22;4786;51.270;4.456;2022-10-31T00:40:54;13.70;99.90
9497;DHT22;4786;51.270;4.456;2022-10-31T00:43:20;13.70;99.90
9497;DHT22;4786;51.270;4.456;2022-10-31T00:45:45;13.70;99.90
9497;DHT22;4786;51.270;4.456;2022-10-31T00:48:11;13.70;99.90
9497;DHT22;4786;51.270;4.456;2022-10-31T00:50:37;13.70;99.90
9497;DHT22;4786;51.270;4.456;2022-10-31T00:53:03;13.70;99.90
9497;DHT22;4786;51.270;4.456;2022-10-31T00:55:29;13.70;99.90
9497;DHT22;4786;51.270;4.456;2022-10-31T00:57:55;13.70;99.90
9497;DHT22;4786;51.270;4.456;2022-10-31T01:00:21;13.70;99.90
9497;DHT22;4786;51.270;4.456;2022-10-31T01:02:47;13.70;99.90
9497;DHT22;4786;51.270;4.456;2022-10-31T01:05:13;13.70;99.90
9497;DHT22;4786;51.270;4.456;2022-10-31T01:07:39;13.60;99.90
9497;DHT22;4786;51.270;4.456;2022-10-31T01:10:07;13.70;99.90
9497;DHT22;4786;51.270;4.456;2022-10-31T01:12:37;13.60;99.90
9497;DHT22;4786;51.270;4.456;2022-10-31T01:15:03;13.50;99.90
9497;DHT22;4786;51.270;4.456;2022-10-31T01:17:29;13.50;99.90
9497;DHT22;4786;51.270;4.456;2022-10-31T01:19:55;13.50;99.90
9497;DHT22;4786;51.270;4.456;2022-10-31T01:22:21;13.50;99.90
9497;DHT22;4786;51.270;4.456;2022-10-31T01:24:46;13.50;99.90
9497;DHT22;4786;51.270;4.456;2022-10-31T01:27:12;13.40;99.90
9497;DHT22;4786;51.270;4.456;2022-10-31T01:29:38;13.40;99.90
9497;DHT22;4786;51.270;4.456;2022-10-31T01:32:04;13.40;99.90
9497;DHT22;4786;51.270;4.456;2022-10-31T01:34:30;13.30;99.90
9497;DHT22;4786;51.270;4.456;2022-10-31T01:36:56;13.20;99.90
9497;DHT22;4786;51.270;4.456;2022-10-31T01:39:22;13.20;99.90
9497;DHT22;4786;51.270;4.456;2022-10-31T01:41:50;13.30;99.90
9497;DHT22;4786;51.270;4.456;2022-10-31T01:49:40;13.10;99.90
9497;DHT22;4786;51.270;4.456;2022-10-31T01:52:22;13.10;99.90
9497;DHT22;4786;51.270;4.456;2022-10-31T01:54:56;13.10;99.90
9497;DHT22;4786;51.270;4.456;2022-10-31T01:57:25;13.10;99.90
9497;DHT22;4786;51.270;4.456;2022-10-31T01:59:56;13.10;99.90
9497;DHT22;4786;51.270;4.456;2022-10-31T02:02:25;13.10;99.90
9497;DHT22;4786;51.270;4.456;2022-10-31T02:04:52;13.00;99.90
9497;DHT22;4786;51.270;4.456;2022-10-31T02:07:32;13.00;99.90
9497;DHT22;4786;51.270;4.456;2022-10-31T02:10:02;13.00;99.90
9497;DHT22;4786;51.270;4.456;2022-10-31T02:12:30;13.00;99.90
9497;DHT22;4786;51.270;4.456;2022-10-31T02:14:58;12.90;99.90
9497;DHT22;4786;51.270;4.456;2022-10-31T02:17:24;12.90;99.90
9497;DHT22;4786;51.270;4.456;2022-10-31T02:19:52;13.10;99.90
9497;DHT22;4786;51.270;4.456;2022-10-31T02:33:55;12.80;99.90
9497;DHT22;4786;51.270;4.456;2022-10-31T02:39:09;12.70;99.90
9497;DHT22;4786;51.270;4.456;2022-10-31T02:41:52;12.70;99.90
9497;DHT22;4786;51.270;4.456;2022-10-31T02:44:40;12.70;99.90
9497;DHT22;4786;51.270;4.456;2022-10-31T02:47:14;12.80;99.90
9497;DHT22;4786;51.270;4.456;2022-10-31T02:49:45;12.80;99.90
9497;DHT22;4786;51.270;4.456;2022-10-31T02:52:21;12.70;99.90
9497;DHT22;4786;51.270;4.456;2022-10-31T02:54:49;12.80;99.90
9497;DHT22;4786;51.270;4.456;2022-10-31T02:57:20;12.70;99.90
9497;DHT22;4786;51.270;4.456;2022-10-31T02:59:50;12.70;99.90
9497;DHT22;4786;51.270;4.456;2022-10-31T03:05:58;12.60;99.90
9497;DHT22;4786;51.270;4.456;2022-10-31T03:11:10;12.60;99.90
9497;DHT22;4786;51.270;4.456;2022-10-31T03:16:19;12.50;99.90
9497;DHT22;4786;51.270;4.456;2022-10-31T03:19:11;12.40;99.90
9497;DHT22;4786;51.270;4.456;2022-10-31T03:21:44;12.30;99.90
9497;DHT22;4786;51.270;4.456;2022-10-31T03:24:11;12.40;99.90
9497;DHT22;4786;51.270;4.456;2022-10-31T03:26:41;12.30;99.90
9497;DHT22;4786;51.270;4.456;2022-10-31T03:29:12;12.30;99.90
9497;DHT22;4786;51.270;4.456;2022-10-31T03:31:56;12.10;99.90
9497;DHT22;4786;51.270;4.456;2022-10-31T03:34:22;12.20;99.90
9497;DHT22;4786;51.270;4.456;2022-10-31T03:36:51;12.20;99.90
9497;DHT22;4786;51.270;4.456;2022-10-31T03:39:19;12.20;99.90
9497;DHT22;4786;51.270;4.456;2022-10-31T03:41:55;12.20;99.90
9497;DHT22;4786;51.270;4.456;2022-10-31T03:44:22;12.10;99.90
9497;DHT22;4786;51.270;4.456;2022-10-31T03:46:49;12.00;99.90
9497;DHT22;4786;51.270;4.456;2022-10-31T03:49:16;12.20;99.90
9497;DHT22;4786;51.270;4.456;2022-10-31T03:54:54;12.00;99.90
9497;DHT22;4786;51.270;4.456;2022-10-31T03:56:57;11.90;99.90
9497;DHT22;4786;51.270;4.456;2022-10-31T03:59:41;12.00;99.90
9497;DHT22;4786;51.270;4.456;2022-10-31T04:02:11;11.90;99.90
9497;DHT22;4786;51.270;4.456;2022-10-31T04:04:38;11.90;99.90
9497;DHT22;4786;51.270;4.456;2022-10-31T04:07:06;11.80;99.90
9497;DHT22;4786;51.270;4.456;2022-10-31T04:09:35;12.10;99.90
9497;DHT22;4786;51.270;4.456;2022-10-31T04:12:04;11.80;99.90
9497;DHT22;4786;51.270;4.456;2022-10-31T04:14:36;11.70;99.90
9497;DHT22;4786;51.270;4.456;2022-10-31T04:17:05;11.60;99.90
9497;DHT22;4786;51.270;4.456;2022-10-31T04:19:33;11.70;99.90
9497;DHT22;4786;51.270;4.456;2022-10-31T04:21:59;11.90;99.90
9497;DHT22;4786;51.270;4.456;2022-10-31T04:24:25;11.80;99.90
9497;DHT22;4786;51.270;4.456;2022-10-31T04:26:51;11.80;99.90
9497;DHT22;4786;51.270;4.456;2022-10-31T04:29:17;11.70;99.90
9497;DHT22;4786;51.270;4.456;2022-10-31T04:31:43;11.70;99.90
9497;DHT22;4786;51.270;4.456;2022-10-31T04:34:08;11.70;99.90
9497;DHT22;4786;51.270;4.456;2022-10-31T04:36:34;11.70;99.90
9497;DHT22;4786;51.270;4.456;2022-10-31T04:39:00;11.50;99.90
9497;DHT22;4786;51.270;4.456;2022-10-31T04:41:26;11.60;99.90
9497;DHT22;4786;51.270;4.456;2022-10-31T04:43:52;11.40;99.90
9497;DHT22;4786;51.270;4.456;2022-10-31T04:46:18;11.40;99.90
9497;DHT22;4786;51.270;4.456;2022-10-31T04:48:44;11.40;99.90
9497;DHT22;4786;51.270;4.456;2022-10-31T04:51:10;11.40;99.90
9497;DHT22;4786;51.270;4.456;2022-10-31T04:53:35;11.40;99.90
9497;DHT22;4786;51.270;4.456;2022-10-31T04:56:01;11.50;99.90
9497;DHT22;4786;51.270;4.456;2022-10-31T04:58:27;11.50;99.90
9497;DHT22;4786;51.270;4.456;2022-10-31T05:00:54;11.40;99.90
9497;DHT22;4786;51.270;4.456;2022-10-31T05:03:20;11.30;99.90
9497;DHT22;4786;51.270;4.456;2022-10-31T05:05:46;11.20;99.90
9497;DHT22;4786;51.270;4.456;2022-10-31T05:08:12;11.20;99.90
9497;DHT22;4786;51.270;4.456;2022-10-31T05:10:38;11.20;99.90
9497;DHT22;4786;51.270;4.456;2022-10-31T05:13:05;11.30;99.90
9497;DHT22;4786;51.270;4.456;2022-10-31T05:15:31;11.30;99.90
9497;DHT22;4786;51.270;4.456;2022-10-31T05:17:58;11.30;99.90
9497;DHT22;4786;51.270;4.456;2022-10-31T05:20:26;11.30;99.90
9497;DHT22;4786;51.270;4.456;2022-10-31T05:22:54;11.30;99.90
9497;DHT22;4786;51.270;4.456;2022-10-31T05:25:21;11.30;99.90
9497;DHT22;4786;51.270;4.456;2022-10-31T05:27:49;11.30;99.90
9497;DHT22;4786;51.270;4.456;2022-10-31T05:30:21;11.20;99.90
9497;DHT22;4786;51.270;4.456;2022-10-31T05:32:49;11.20;99.90
9497;DHT22;4786;51.270;4.456;2022-10-31T05:35:20;11.20;99.90
9497;DHT22;4786;51.270;4.456;2022-10-31T05:37:46;11.20;99.90
9497;DHT22;4786;51.270;4.456;2022-10-31T05:40:14;11.20;99.90
9497;DHT22;4786;51.270;4.456;2022-10-31T05:42:40;11.30;99.90
9497;DHT22;4786;51.270;4.456;2022-10-31T05:45:08;11.40;99.90
9497;DHT22;4786;51.270;4.456;2022-10-31T05:47:34;11.40;99.90
9497;DHT22;4786;51.270;4.456;2022-10-31T05:50:00;11.40;99.90
9497;DHT22;4786;51.270;4.456;2022-10-31T05:52:25;11.40;99.90
9497;DHT22;4786;51.270;4.456;2022-10-31T05:54:51;11.40;99.90
9497;DHT22;4786;51.270;4.456;2022-10-31T05:57:17;11.50;99.90
9497;DHT22;4786;51.270;4.456;2022-10-31T05:59:42;11.60;99.90
9497;DHT22;4786;51.270;4.456;2022-10-31T06:02:09;11.60;99.90
9497;DHT22;4786;51.270;4.456;2022-10-31T06:04:34;11.60;99.90
9497;DHT22;4786;51.270;4.456;2022-10-31T06:07:01;11.70;99.90
9497;DHT22;4786;51.270;4.456;2022-10-31T06:09:27;11.70;99.90
9497;DHT22;4786;51.270;4.456;2022-10-31T06:11:52;11.60;99.90
9497;DHT22;4786;51.270;4.456;2022-10-31T06:14:18;11.60;99.90
9497;DHT22;4786;51.270;4.456;2022-10-31T06:16:44;11.60;99.90
9497;DHT22;4786;51.270;4.456;2022-10-31T06:19:09;11.70;99.90
9497;DHT22;4786;51.270;4.456;2022-10-31T06:21:36;11.60;99.90
9497;DHT22;4786;51.270;4.456;2022-10-31T06:24:01;11.70;99.90
9497;DHT22;4786;51.270;4.456;2022-10-31T06:26:27;11.70;99.90
9497;DHT22;4786;51.270;4.456;2022-10-31T06:28:53;11.70;99.90
9497;DHT22;4786;51.270;4.456;2022-10-31T06:31:19;11.70;99.90
9497;DHT22;4786;51.270;4.456;2022-10-31T06:33:45;11.70;99.90
9497;DHT22;4786;51.270;4.456;2022-10-31T06:36:11;11.70;99.90
9497;DHT22;4786;51.270;4.456;2022-10-31T06:38:37;11.80;99.90
9497;DHT22;4786;51.270;4.456;2022-10-31T06:41:06;11.80;99.90
9497;DHT22;4786;51.270;4.456;2022-10-31T06:43:32;11.80;99.90
9497;DHT22;4786;51.270;4.456;2022-10-31T06:46:02;11.80;99.90
9497;DHT22;4786;51.270;4.456;2022-10-31T06:48:28;11.80;99.90
9497;DHT22;4786;51.270;4.456;2022-10-31T06:50:57;11.90;99.90
9497;DHT22;4786;51.270;4.456;2022-10-31T06:53:23;11.90;99.90
9497;DHT22;4786;51.270;4.456;2022-10-31T06:55:49;11.80;99.90
9497;DHT22;4786;51.270;4.456;2022-10-31T06:58:15;12.00;99.90
9497;DHT22;4786;51.270;4.456;2022-10-31T07:00:41;12.10;99.90
9497;DHT22;4786;51.270;4.456;2022-10-31T07:03:10;12.10;99.90
9497;DHT22;4786;51.270;4.456;2022-10-31T07:05:36;12.20;99.90
9497;DHT22;4786;51.270;4.456;2022-10-31T07:08:05;12.20;99.90
9497;DHT22;4786;51.270;4.456;2022-10-31T07:10:33;12.30;99.90
9497;DHT22;4786;51.270;4.456;2022-10-31T07:13:02;12.30;99.90
9497;DHT22;4786;51.270;4.456;2022-10-31T07:15:30;12.30;99.90
9497;DHT22;4786;51.270;4.456;2022-10-31T07:18:05;12.40;99.90
9497;DHT22;4786;51.270;4.456;2022-10-31T07:20:31;12.40;99.90
9497;DHT22;4786;51.270;4.456;2022-10-31T07:22:57;12.50;99.90
9497;DHT22;4786;51.270;4.456;2022-10-31T07:25:24;12.50;99.90
9497;DHT22;4786;51.270;4.456;2022-10-31T07:27:50;12.50;99.90
9497;DHT22;4786;51.270;4.456;2022-10-31T07:30:17;12.50;99.90
9497;DHT22;4786;51.270;4.456;2022-10-31T07:32:48;12.60;99.90
9497;DHT22;4786;51.270;4.456;2022-10-31T07:35:20;12.60;99.90
9497;DHT22;4786;51.270;4.456;2022-10-31T07:37:47;12.50;99.90
9497;DHT22;4786;51.270;4.456;2022-10-31T07:40:13;12.60;99.90
9497;DHT22;4786;51.270;4.456;2022-10-31T07:42:44;12.60;99.90
9497;DHT22;4786;51.270;4.456;2022-10-31T07:45:12;12.60;99.90
9497;DHT22;4786;51.270;4.456;2022-10-31T07:47:49;12.60;99.90
9497;DHT22;4786;51.270;4.456;2022-10-31T07:50:20;12.70;99.90
9497;DHT22;4786;51.270;4.456;2022-10-31T07:52:46;12.70;99.90
9497;DHT22;4786;51.270;4.456;2022-10-31T07:55:12;12.70;99.90
9497;DHT22;4786;51.270;4.456;2022-10-31T07:57:37;12.70;99.90
9497;DHT22;4786;51.270;4.456;2022-10-31T08:00:08;12.80;99.90
9497;DHT22;4786;51.270;4.456;2022-10-31T08:02:34;12.80;99.90
9497;DHT22;4786;51.270;4.456;2022-10-31T08:05:00;12.90;99.90
9497;DHT22;4786;51.270;4.456;2022-10-31T08:07:28;12.70;99.90
9497;DHT22;4786;51.270;4.456;2022-10-31T08:09:55;12.90;99.90
9497;DHT22;4786;51.270;4.456;2022-10-31T08:12:20;13.00;99.90
9497;DHT22;4786;51.270;4.456;2022-10-31T08:14:47;13.00;99.90
9497;DHT22;4786;51.270;4.456;2022-10-31T08:17:13;13.00;99.90
9497;DHT22;4786;51.270;4.456;2022-10-31T08:19:39;13.10;99.90
9497;DHT22;4786;51.270;4.456;2022-10-31T08:22:05;13.10;99.90
9497;DHT22;4786;51.270;4.456;2022-10-31T08:24:31;13.20;99.90
9497;DHT22;4786;51.270;4.456;2022-10-31T08:26:56;13.30;99.90
9497;DHT22;4786;51.270;4.456;2022-10-31T08:29:22;13.30;99.90
9497;DHT22;4786;51.270;4.456;2022-10-31T08:31:47;13.40;99.90
9497;DHT22;4786;51.270;4.456;2022-10-31T08:34:13;13.40;99.90
9497;DHT22;4786;51.270;4.456;2022-10-31T08:36:39;13.40;99.90
9497;DHT22;4786;51.270;4.456;2022-10-31T08:39:05;13.40;99.90
9497;DHT22;4786;51.270;4.456;2022-10-31T08:41:30;13.50;99.90
9497;DHT22;4786;51.270;4.456;2022-10-31T08:43:56;13.50;99.90
9497;DHT22;4786;51.270;4.456;2022-10-31T08:46:22;13.60;99.90
9497;DHT22;4786;51.270;4.456;2022-10-31T08:48:49;13.60;99.90
9497;DHT22;4786;51.270;4.456;2022-10-31T08:51:15;13.60;99.90
9497;DHT22;4786;51.270;4.456;2022-10-31T08:53:41;13.70;99.90
9497;DHT22;4786;51.270;4.456;2022-10-31T08:56:07;13.80;99.90
9497;DHT22;4786;51.270;4.456;2022-10-31T08:58:33;13.80;99.90
9497;DHT22;4786;51.270;4.456;2022-10-31T09:01:00;13.90;99.90
9497;DHT22;4786;51.270;4.456;2022-10-31T09:03:29;13.90;99.90
9497;DHT22;4786;51.270;4.456;2022-10-31T09:05:57;14.10;99.90
9497;DHT22;4786;51.270;4.456;2022-10-31T09:08:23;14.10;99.90
9497;DHT22;4786;51.270;4.456;2022-10-31T09:10:49;14.10;99.90
9497;DHT22;4786;51.270;4.456;2022-10-31T09:13:17;14.20;99.90
9497;DHT22;4786;51.270;4.456;2022-10-31T09:15:45;14.30;99.90
9497;DHT22;4786;51.270;4.456;2022-10-31T09:18:12;14.40;99.90
9497;DHT22;4786;51.270;4.456;2022-10-31T09:20:39;14.30;99.90
9497;DHT22;4786;51.270;4.456;2022-10-31T09:23:11;14.30;99.90
9497;DHT22;4786;51.270;4.456;2022-10-31T09:25:37;14.40;99.90
9497;DHT22;4786;51.270;4.456;2022-10-31T09:28:05;14.40;99.90
9497;DHT22;4786;51.270;4.456;2022-10-31T09:30:33;14.40;99.90
9497;DHT22;4786;51.270;4.456;2022-10-31T09:33:02;14.30;99.90
9497;DHT22;4786;51.270;4.456;2022-10-31T09:35:28;14.40;99.90
9497;DHT22;4786;51.270;4.456;2022-10-31T09:38:01;14.50;99.90
9497;DHT22;4786;51.270;4.456;2022-10-31T09:40:41;14.50;99.90
9497;DHT22;4786;51.270;4.456;2022-10-31T09:51:25;14.70;99.90
9497;DHT22;4786;51.270;4.456;2022-10-31T09:56:27;14.70;99.90
9497;DHT22;4786;51.270;4.456;2022-10-31T09:58:55;14.70;99.90
9497;DHT22;4786;51.270;4.456;2022-10-31T10:03:55;14.70;99.90
9497;DHT22;4786;51.270;4.456;2022-10-31T10:06:29;14.70;99.90
9497;DHT22;4786;51.270;4.456;2022-10-31T10:08:55;14.70;99.90
9497;DHT22;4786;51.270;4.456;2022-10-31T10:17:41;14.70;99.90
9497;DHT22;4786;51.270;4.456;2022-10-31T10:20:26;14.70;99.90
9497;DHT22;4786;51.270;4.456;2022-10-31T10:23:10;14.70;99.90
9497;DHT22;4786;51.270;4.456;2022-10-31T10:25:39;14.70;99.90
9497;DHT22;4786;51.270;4.456;2022-10-31T10:28:32;14.80;99.90
9497;DHT22;4786;51.270;4.456;2022-10-31T10:31:08;14.70;99.90
9497;DHT22;4786;51.270;4.456;2022-10-31T10:36:47;14.80;99.90
9497;DHT22;4786;51.270;4.456;2022-10-31T10:39:36;14.80;99.90
9497;DHT22;4786;51.270;4.456;2022-10-31T10:42:15;14.80;99.90
9497;DHT22;4786;51.270;4.456;2022-10-31T10:45:00;14.90;99.90
9497;DHT22;4786;51.270;4.456;2022-10-31T10:47:56;15.00;99.90
9497;DHT22;4786;51.270;4.456;2022-10-31T10:50:30;15.00;99.90
9497;DHT22;4786;51.270;4.456;2022-10-31T10:58:30;15.10;99.90
9497;DHT22;4786;51.270;4.456;2022-10-31T11:00:56;15.20;99.90
9497;DHT22;4786;51.270;4.456;2022-10-31T11:03:22;15.30;99.90
9497;DHT22;4786;51.270;4.456;2022-10-31T11:05:53;15.40;99.90
9497;DHT22;4786;51.270;4.456;2022-10-31T11:08:30;15.60;99.90
9497;DHT22;4786;51.270;4.456;2022-10-31T11:11:14;15.50;99.90
9497;DHT22;4786;51.270;4.456;2022-10-31T11:13:46;15.60;99.90
9497;DHT22;4786;51.270;4.456;2022-10-31T11:16:26;15.60;99.90
9497;DHT22;4786;51.270;4.456;2022-10-31T11:18:54;15.70;99.90
9497;DHT22;4786;51.270;4.456;2022-10-31T11:21:30;15.80;99.90
9497;DHT22;4786;51.270;4.456;2022-10-31T11:26:42;15.90;99.90
9497;DHT22;4786;51.270;4.456;2022-10-31T11:29:21;15.90;99.90
9497;DHT22;4786;51.270;4.456;2022-10-31T11:31:57;16.00;99.90
9497;DHT22;4786;51.270;4.456;2022-10-31T11:34:41;16.00;99.90
9497;DHT22;4786;51.270;4.456;2022-10-31T11:37:18;16.00;99.90
9497;DHT22;4786;51.270;4.456;2022-10-31T11:39:50;16.00;99.90
9497;DHT22;4786;51.270;4.456;2022-10-31T11:42:23;16.00;99.90
9497;DHT22;4786;51.270;4.456;2022-10-31T11:44:51;16.00;99.90
9497;DHT22;4786;51.270;4.456;2022-10-31T11:47:26;16.00;99.90
9497;DHT22;4786;51.270;4.456;2022-10-31T11:49:54;16.00;99.90
9497;DHT22;4786;51.270;4.456;2022-10-31T11:52:24;15.90;99.90
9497;DHT22;4786;51.270;4.456;2022-10-31T11:57:51;15.90;99.90
9497;DHT22;4786;51.270;4.456;2022-10-31T12:00:27;16.00;99.90
9497;DHT22;4786;51.270;4.456;2022-10-31T12:08:30;16.00;99.90
9497;DHT22;4786;51.270;4.456;2022-10-31T12:11:09;16.10;99.90
9497;DHT22;4786;51.270;4.456;2022-10-31T12:14:11;16.10;99.90
9497;DHT22;4786;51.270;4.456;2022-10-31T12:25:10;16.60;99.90
9497;DHT22;4786;51.270;4.456;2022-10-31T12:27:56;16.70;99.90
9497;DHT22;4786;51.270;4.456;2022-10-31T12:30:28;16.90;99.90
9497;DHT22;4786;51.270;4.456;2022-10-31T12:46:16;16.90;99.90
9497;DHT22;4786;51.270;4.456;2022-10-31T12:52:35;17.10;99.90
9497;DHT22;4786;51.270;4.456;2022-10-31T12:55:36;16.90;99.90
9497;DHT22;4786;51.270;4.456;2022-10-31T12:58:21;17.00;99.90
9497;DHT22;4786;51.270;4.456;2022-10-31T13:00:54;17.10;99.90
9497;DHT22;4786;51.270;4.456;2022-10-31T13:06:03;17.10;99.90
9497;DHT22;4786;51.270;4.456;2022-10-31T13:08:36;17.00;99.90
9497;DHT22;4786;51.270;4.456;2022-10-31T13:11:22;17.10;99.90
9497;DHT22;4786;51.270;4.456;2022-10-31T13:14:00;17.10;99.90
9497;DHT22;4786;51.270;4.456;2022-10-31T13:16:43;17.20;99.90
9497;DHT22;4786;51.270;4.456;2022-10-31T13:19:17;17.20;99.90
9497;DHT22;4786;51.270;4.456;2022-10-31T13:24:42;17.30;99.90
9497;DHT22;4786;51.270;4.456;2022-10-31T13:27:18;17.30;99.90
9497;DHT22;4786;51.270;4.456;2022-10-31T13:30:22;17.30;99.90
9497;DHT22;4786;51.270;4.456;2022-10-31T13:33:16;17.30;99.90
9497;DHT22;4786;51.270;4.456;2022-10-31T13:39:03;17.40;99.90
9497;DHT22;4786;51.270;4.456;2022-10-31T13:41:33;17.50;99.90
9497;DHT22;4786;51.270;4.456;2022-10-31T13:46:39;17.60;99.90
9497;DHT22;4786;51.270;4.456;2022-10-31T13:51:52;17.70;99.90
9497;DHT22;4786;51.270;4.456;2022-10-31T13:54:34;17.80;99.90
9497;DHT22;4786;51.270;4.456;2022-10-31T13:57:00;17.80;99.90
9497;DHT22;4786;51.270;4.456;2022-10-31T13:59:28;17.90;99.90
9497;DHT22;4786;51.270;4.456;2022-10-31T14:01:58;17.90;99.90
9497;DHT22;4786;51.270;4.456;2022-10-31T14:04:38;17.90;99.90
9497;DHT22;4786;51.270;4.456;2022-10-31T14:07:13;17.90;99.90
9497;DHT22;4786;51.270;4.456;2022-10-31T14:09:55;17.90;99.90
9497;DHT22;4786;51.270;4.456;2022-10-31T14:12:37;17.90;99.90
9497;DHT22;4786;51.270;4.456;2022-10-31T14:17:51;17.90;99.90
9497;DHT22;4786;51.270;4.456;2022-10-31T14:22:45;17.80;99.90
9497;DHT22;4786;51.270;4.456;2022-10-31T14:25:35;17.80;99.90
9497;DHT22;4786;51.270;4.456;2022-10-31T14:28:42;17.80;99.90
9497;DHT22;4786;51.270;4.456;2022-10-31T14:31:36;17.80;99.90
9497;DHT22;4786;51.270;4.456;2022-10-31T14:50:32;17.70;99.90
9497;DHT22;4786;51.270;4.456;2022-10-31T14:53:04;17.60;99.90
9497;DHT22;4786;51.270;4.456;2022-10-31T14:55:31;17.60;99.90
9497;DHT22;4786;51.270;4.456;2022-10-31T14:58:04;17.60;99.90
9497;DHT22;4786;51.270;4.456;2022-10-31T15:00:33;17.60;99.90
9497;DHT22;4786;51.270;4.456;2022-10-31T15:03:12;17.60;99.90
9497;DHT22;4786;51.270;4.456;2022-10-31T15:05:53;17.60;99.90
9497;DHT22;4786;51.270;4.456;2022-10-31T15:11:16;17.60;99.90
9497;DHT22;4786;51.270;4.456;2022-10-31T15:16:19;17.60;99.90
9497;DHT22;4786;51.270;4.456;2022-10-31T15:21:21;17.40;99.90
9497;DHT22;4786;51.270;4.456;2022-10-31T15:23:50;17.40;99.90
9497;DHT22;4786;51.270;4.456;2022-10-31T15:26:22;17.40;99.90
9497;DHT22;4786;51.270;4.456;2022-10-31T15:29:10;17.30;99.90
9497;DHT22;4786;51.270;4.456;2022-10-31T15:31:37;17.30;99.90
9497;DHT22;4786;51.270;4.456;2022-10-31T15:34:14;17.20;99.90
9497;DHT22;4786;51.270;4.456;2022-10-31T15:36:41;17.20;99.90
9497;DHT22;4786;51.270;4.456;2022-10-31T15:39:13;17.10;99.90
9497;DHT22;4786;51.270;4.456;2022-10-31T15:41:55;17.10;99.90
9497;DHT22;4786;51.270;4.456;2022-10-31T15:47:05;17.00;99.90
9497;DHT22;4786;51.270;4.456;2022-10-31T15:49:34;16.90;99.90
9497;DHT22;4786;51.270;4.456;2022-10-31T15:57:40;16.70;99.90
9497;DHT22;4786;51.270;4.456;2022-10-31T16:03:25;16.70;99.90
9497;DHT22;4786;51.270;4.456;2022-10-31T16:05:53;16.60;99.90
9497;DHT22;4786;51.270;4.456;2022-10-31T16:08:35;16.60;99.90
9497;DHT22;4786;51.270;4.456;2022-10-31T16:13:35;16.50;99.90
9497;DHT22;4786;51.270;4.456;2022-10-31T16:16:04;16.50;99.90
9497;DHT22;4786;51.270;4.456;2022-10-31T16:18:37;16.40;99.90
9497;DHT22;4786;51.270;4.456;2022-10-31T16:21:04;16.30;99.90
9497;DHT22;4786;51.270;4.456;2022-10-31T16:23:30;16.30;99.90
9497;DHT22;4786;51.270;4.456;2022-10-31T16:25:56;16.30;99.90
9497;DHT22;4786;51.270;4.456;2022-10-31T16:28:24;16.30;99.90
9497;DHT22;4786;51.270;4.456;2022-10-31T16:30:52;16.20;99.90
9497;DHT22;4786;51.270;4.456;2022-10-31T16:33:31;16.10;99.90
9497;DHT22;4786;51.270;4.456;2022-10-31T16:36:30;16.10;99.90
9497;DHT22;4786;51.270;4.456;2022-10-31T16:38:59;16.10;99.90
9497;DHT22;4786;51.270;4.456;2022-10-31T16:41:26;16.00;99.90
9497;DHT22;4786;51.270;4.456;2022-10-31T16:43:52;16.00;99.90
9497;DHT22;4786;51.270;4.456;2022-10-31T16:46:24;15.90;99.90
9497;DHT22;4786;51.270;4.456;2022-10-31T16:48:51;15.80;99.90
9497;DHT22;4786;51.270;4.456;2022-10-31T16:51:17;15.80;99.90
9497;DHT22;4786;51.270;4.456;2022-10-31T16:53:43;15.80;99.90
9497;DHT22;4786;51.270;4.456;2022-10-31T16:56:18;15.80;99.90
9497;DHT22;4786;51.270;4.456;2022-10-31T16:58:47;15.80;99.90
9497;DHT22;4786;51.270;4.456;2022-10-31T17:01:13;15.80;99.90
9497;DHT22;4786;51.270;4.456;2022-10-31T17:03:39;15.80;99.90
9497;DHT22;4786;51.270;4.456;2022-10-31T17:06:08;15.70;99.90
9497;DHT22;4786;51.270;4.456;2022-10-31T17:08:34;15.80;99.90
9497;DHT22;4786;51.270;4.456;2022-10-31T17:11:00;15.80;99.90
9497;DHT22;4786;51.270;4.456;2022-10-31T17:13:29;15.70;99.90
9497;DHT22;4786;51.270;4.456;2022-10-31T17:15:58;15.70;99.90
9497;DHT22;4786;51.270;4.456;2022-10-31T17:18:24;15.70;99.90
9497;DHT22;4786;51.270;4.456;2022-10-31T17:20:55;15.70;99.90
9497;DHT22;4786;51.270;4.456;2022-10-31T17:23:21;15.70;99.90
9497;DHT22;4786;51.270;4.456;2022-10-31T17:25:47;15.60;99.90
9497;DHT22;4786;51.270;4.456;2022-10-31T17:28:14;15.70;99.90
9497;DHT22;4786;51.270;4.456;2022-10-31T17:30:40;15.70;99.90
9497;DHT22;4786;51.270;4.456;2022-10-31T17:33:10;15.70;99.90
9497;DHT22;4786;51.270;4.456;2022-10-31T17:35:37;15.60;99.90
9497;DHT22;4786;51.270;4.456;2022-10-31T17:38:03;15.60;99.90
9497;DHT22;4786;51.270;4.456;2022-10-31T17:40:29;15.60;99.90
9497;DHT22;4786;51.270;4.456;2022-10-31T17:42:56;15.60;99.90
9497;DHT22;4786;51.270;4.456;2022-10-31T17:45:24;15.60;99.90
9497;DHT22;4786;51.270;4.456;2022-10-31T17:47:50;15.50;99.90
9497;DHT22;4786;51.270;4.456;2022-10-31T17:50:18;15.60;99.90
9497;DHT22;4786;51.270;4.456;2022-10-31T17:52:44;15.60;99.90
9497;DHT22;4786;51.270;4.456;2022-10-31T17:55:10;15.60;99.90
9497;DHT22;4786;51.270;4.456;2022-10-31T17:57:36;15.60;99.90
9497;DHT22;4786;51.270;4.456;2022-10-31T18:00:05;15.60;99.90
9497;DHT22;4786;51.270;4.456;2022-10-31T18:02:31;15.60;99.90
9497;DHT22;4786;51.270;4.456;2022-10-31T18:04:57;15.60;99.90
9497;DHT22;4786;51.270;4.456;2022-10-31T18:07:23;15.50;99.90
9497;DHT22;4786;51.270;4.456;2022-10-31T18:09:49;15.50;99.90
9497;DHT22;4786;51.270;4.456;2022-10-31T18:12:15;15.50;99.90
9497;DHT22;4786;51.270;4.456;2022-10-31T18:14:41;15.60;99.90
9497;DHT22;4786;51.270;4.456;2022-10-31T18:17:07;15.60;99.90
9497;DHT22;4786;51.270;4.456;2022-10-31T18:19:33;15.60;99.90
9497;DHT22;4786;51.270;4.456;2022-10-31T18:21:59;15.60;99.90
9497;DHT22;4786;51.270;4.456;2022-10-31T18:24:25;15.60;99.90
9497;DHT22;4786;51.270;4.456;2022-10-31T18:26:53;15.60;99.90
9497;DHT22;4786;51.270;4.456;2022-10-31T18:29:19;15.60;99.90
9497;DHT22;4786;51.270;4.456;2022-10-31T18:31:45;15.60;99.90
9497;DHT22;4786;51.270;4.456;2022-10-31T18:34:14;15.60;99.90
9497;DHT22;4786;51.270;4.456;2022-10-31T18:36:40;15.60;99.90
9497;DHT22;4786;51.270;4.456;2022-10-31T18:39:06;15.60;99.90
9497;DHT22;4786;51.270;4.456;2022-10-31T18:41:32;15.60;99.90
9497;DHT22;4786;51.270;4.456;2022-10-31T18:43:58;15.60;99.90
9497;DHT22;4786;51.270;4.456;2022-10-31T18:46:26;15.70;99.90
9497;DHT22;4786;51.270;4.456;2022-10-31T18:48:52;15.70;99.90
9497;DHT22;4786;51.270;4.456;2022-10-31T18:51:19;15.70;99.90
9497;DHT22;4786;51.270;4.456;2022-10-31T18:53:53;15.70;99.90